Accueil
METAR-TAF:

METAR-TAF

Aéroports :

Aéroport d'Oxford Kidlington

Oxford, Angleterre

latitude: 51-50-13N, longitude: 1-19-12W, altitude: 82 m

Observation

Le bulletin a été fait il y a 51 minutes, à 13:20 UTC
Vent 10 kt de sud-ouest
Température 23°C
Humidité 69%
Pression 1019 hPa
Visibilité 10 km ou plus
Nuages épars à une hauteur de 2100 ft
Nuages fragmentés à une hauteur de 4800 ft

METAR: EGTK 201320Z 23010KT 9999 SCT021 BKN048 23/17 Q1019

Heure: 15:11 (14:11 UTC)

Prévision

Le bulletin a été fait il y a 3 heures et 11 minutes, à 11:00 UTC
Prévision valable du 20 à 12 UTC au 20 à 21 UTC
Vent 8 kt de ouest/sud-ouest
Visibilité 10 km ou plus
Nuages épars à une hauteur de 2000 ft

TAF: EGTK 201100Z 2012/2021 25008KT 9999 SCT020

Observations et prévisions météorologiques de plus de 4000 aéroports (messages METAR et TAF).

Les stations disponibles sont représentées par des disques jaunes et rouges sur la carte.

Passer la souris dessus pour voir le nom de la station.

Cliquer dessus pour voir les observations et prévisions météorologiques.

Pour changer de carte: cliquez sur les boutons verts avec une croix noire pour zoomer, sur le bouton vert avec un tiret pour effectuer un zoom arrière, ou sur les flèches vertes pour les cartes adjacentes.


METAR-TAF: